Tiempo atmosférico en la estación meteorológica de Agaete, Las Palmas (5 m.)



Fecha
DESCASC
Temp. máxima en grados centígrados (hora)
DESCASC
Temp. mínima en grados centígrados (hora)
DESCASC
Temp. media en grados centígrados
DESCASC
Racha de viento máxima en m/sg (hora)
DESCASC
Velocidad máxima media en intervalos de 10 minutos(hora)
DESCASC
Precipitaciones diarias en mm
DESCASC
Precipitaciones de 00:00 a 06:00 en mm
DESCASC
Precipitaciones de 06:00 a 12:00 en mm
DESCASC
Precipitaciones de 12:00 a 18:00 en mm
DESCASC
Precipitaciones de 18:00 a 24:00 en mm
DESCASC
18-08-2019 32.3 (00:30) 25.8 (08:40) 29 16.67 (13:10) 10 (12:30) 0 0 0 0 0
17-08-2019 32.6 (17:30) 23.8 (00:50) 28.2 16.11 (00:20) 11.94 (00:20) 0 0 0 0 0
16-08-2019 27.3 (12:30) 22.1 (06:30) 24.7 18.33 (11:40) 15.28 (11:40) 0 0 0 0 0
15-08-2019 25.9 (17:10) 21.6 (00:00) 23.8 17.5 (21:10) 12.78 (21:20) 0 0 0 0 0
14-08-2019 25 (13:20) 21.3 (00:00) 23.1 16.11 (16:10) 10.56 (15:30) 0 0 0 0 0
13-08-2019 25.1 (16:10) 21.6 (00:00) 23.4 15.83 (14:10) 8.89 (15:50) 0 0 0 0 0
12-08-2019 25.5 (13:30) 22.2 (00:00) 23.9 13.61 (00:10) 8.06 (00:10) 0 0 0 0 0
11-08-2019 26.3 (12:40) 22.7 (00:00) 24.5 15 (19:10) 10 (18:10) 0 0 0 0 0
10-08-2019 28.2 (10:40) 23.7 (00:00) 26 17.5 (12:10) 10.56 (16:10) 0 0 0 0 0
09-08-2019 27.5 (14:30) 21.9 (00:00) 24.7 10.83 (06:50) 6.67 (15:00) 0 0 0 0 0
08-08-2019 27.9 (14:10) 21.8 (00:00) 24.8 11.94 (00:20) 7.22 (17:10) 0 0 0 0 0
07-08-2019 26.6 (15:40) 21.9 (00:00) 24.3 13.61 (14:30) 8.33 (17:00) 0 0 0 0 0
06-08-2019 26.5 (17:10) 22.3 (00:00) 24.4 12.5 (22:10) 7.5 (14:00) 0 0 0 0 0
05-08-2019 25.8 (14:10) 22.3 (00:00) 24 14.44 (15:20) 8.89 (15:00) 0 0 0 0 0
04-08-2019 26.3 (17:00) 21.4 (00:00) 23.8 12.78 (16:20) 7.5 (15:50) 0 0 0 0 0
03-08-2019 24.7 (16:20) 21.6 (00:00) 23.2 14.44 (15:30) 8.06 (12:40) 0 0 0 0 0
02-08-2019 25.6 (16:10) 21.7 (00:00) 23.7 13.61 (14:40) 8.33 (16:40) 0 0 0 0 0
01-08-2019 25.2 (15:10) 21.3 (00:00) 23.3 13.33 (14:10) 8.61 (16:00) 0 0 0 0 0
31-07-2019 24.6 (15:40) 21.1 (00:00) 22.9 11.39 (15:10) 7.5 (13:00) 0 0 0 0 0
30-07-2019 24.4 (16:40) 20.2 (00:00) 22.3 12.5 (14:10) 7.22 (07:00) 1.2 0 1.2 0 0
29-07-2019 25.4 (14:30) 22.1 (00:00) 23.8 12.5 (16:20) 7.5 (15:30) 0 0 0 0 0
28-07-2019 25.8 (12:50) 21.6 (00:00) 23.7 14.44 (20:10) 7.5 (20:10) 0 0 0 0 0
27-07-2019 24.6 (16:00) 21.6 (00:00) 23.1 17.22 (14:20) 10.83 (13:30) 0 0 0 0 0
26-07-2019 27.2 (17:10) 22.2 (00:00) 24.7 20.56 (13:10) 11.67 (14:20) 0 0 0 0 0
25-07-2019 28.2 (13:40) 21.9 (00:00) 25.1 15.28 (14:00) 11.67 (10:00) 0 0 0 0 0
24-07-2019 24.9 (15:40) 21 (00:00) 22.9 16.11 (16:10) 11.39 (16:30) 0 0 0 0 0
23-07-2019 24.3 (17:10) 21 (00:00) 22.6 16.39 (14:50) 10 (13:50) 0 0 0 0 0
22-07-2019 24.6 (14:40) 21.3 (00:00) 22.9 15 (16:10) 8.89 (16:30) 0 0 0 0 0
21-07-2019 25 (15:00) 21.5 (00:00) 23.3 15.28 (12:30) 9.72 (12:30) 0 0 0 0 0

Gráficas

Temp. máximas Temp. mínimas Temp. medias Precipitaciones Rachas de viento máximas Velocidades máximas media en intervalos de 10 minutos

Datos horarios

Fecha y hora oficial Temperatura (ºC) Velocidad del viento (km/h) Dirección del viento Racha (km/h) Dirección de racha Precipitación (mm) Presión (hPa) Tendencia (hPa) Humedad (%)
2019-08-19 23:00:00 22.8 26 Nordeste 54 Norte 0 -- -- 73
2019-08-19 22:00:00 23.6 15 Nordeste 36 Nordeste 0 -- -- 68
2019-08-19 21:00:00 25.3 16 Nordeste 38 Nordeste 0 -- -- 57
2019-08-19 20:00:00 25.9 13 Nordeste 43 Norte 0 -- -- 58
2019-08-19 19:00:00 27.2 12 Nordeste 37 Sudeste 0 -- -- 55
2019-08-19 18:00:00 29.2 12 Sudeste 39 Sudeste 0 -- -- 51
2019-08-19 17:00:00 31.2 8 Sudeste 31 Sur 0 -- -- 42
2019-08-19 16:00:00 28.8 16 Sur 44 Sur 0 -- -- 51
2019-08-19 15:00:00 30.6 21 Sur 44 Sur 0 -- -- 46
2019-08-19 14:00:00 29.7 22 Sur 40 Sur 0 -- -- 50
2019-08-19 13:00:00 27.4 12 Sudeste 24 Sur 0 -- -- 58
2019-08-19 12:00:00 29.7 10 Sur 27 Noroeste 0 -- -- 46
2019-08-19 11:00:00 26.3 14 Sudeste 26 Noroeste 0 -- -- 56
2019-08-19 10:00:00 27.5 8 Sudoeste 32 Norte 0 -- -- 51
2019-08-19 09:00:00 26.4 13 Oeste 34 Nordeste 0 -- -- 47
2019-08-19 08:00:00 27.5 9 Nordeste 42 Norte 0 -- -- 36
2019-08-19 07:00:00 28.1 20 Nordeste 41 Nordeste 0 -- -- 27
2019-08-19 06:00:00 26 9 Norte 37 Nordeste 0 -- -- 37
2019-08-19 05:00:00 25.1 11 Norte 32 Norte 0 -- -- 53
2019-08-19 04:00:00 26.5 8 Norte 27 Sudeste 0 -- -- 37
2019-08-19 03:00:00 24.9 9 Sur 29 Este 0 -- -- 55
2019-08-19 02:00:00 27.6 13 Norte 38 Nordeste 0 -- -- 35
2019-08-19 01:00:00 29.5 14 Este 48 Nordeste 0 -- -- 31
2019-08-19 00:00:00 29.1 24 Nordeste 51 Nordeste 0 -- -- 25
2019-08-18 23:00:00 27.5 20 Nordeste 46 Este 0 -- -- 46
2019-08-18 22:00:00 30.4 23 Nordeste 48 Este 0 -- -- 22
2019-08-18 21:00:00 29.1 22 Este 52 Nordeste 0 -- -- 32
2019-08-18 20:00:00 28.3 31 Nordeste 54 Nordeste 0 -- -- 41
2019-08-18 19:00:00 30 20 Este 39 Nordeste 0 -- -- 42
2019-08-18 18:00:00 28.3 12 Sudoeste 50 Este 0 -- -- 56
2019-08-18 17:00:00 28.8 26 Este 51 Norte 0 -- -- 54
2019-08-18 16:00:00 30 18 Nordeste 45 Este 0 -- -- 50
2019-08-18 15:00:00 29.3 14 Noroeste 59 Nordeste 0 -- -- 54
2019-08-18 14:00:00 28.6 29 Nordeste 60 Nordeste 0 -- -- 54
2019-08-18 13:00:00 29.9 29 Nordeste 55 Nordeste 0 -- -- 46
2019-08-18 12:00:00 31.2 30 Nordeste 53 Nordeste 0 -- -- 39
2019-08-18 11:00:00 28.7 19 Este 57 Nordeste 0 -- -- 46
2019-08-18 10:00:00 27.2 10 Sudoeste 45 Nordeste 0 -- -- 53
2019-08-18 09:00:00 26.2 14 Sudeste 42 Nordeste 0 -- -- 54
2019-08-18 08:00:00 26.5 20 Este 47 Este 0 -- -- 48
2019-08-18 07:00:00 27.5 29 Nordeste 52 Nordeste 0 -- -- 43
2019-08-18 06:00:00 28.9 31 Nordeste 49 Nordeste 0 -- -- 37
2019-08-18 05:00:00 29.8 30 Nordeste 53 Nordeste 0 -- -- 34
2019-08-18 04:00:00 30.1 29 Nordeste 55 Nordeste 0 -- -- 32
2019-08-18 03:00:00 30.2 32 Nordeste 53 Nordeste 0 -- -- 32
2019-08-18 02:00:00 30.5 30 Nordeste 55 Nordeste 0 -- -- 32
2019-08-18 01:00:00 29.9 33 Nordeste 54 Nordeste 0 -- -- 34
2019-08-18 00:00:00 31.9 24 Nordeste 50 Nordeste 0 -- -- 26
2019-08-17 23:00:00 30.5 20 Nordeste 40 Nordeste 0 -- -- 34
2019-08-17 22:00:00 30.6 25 Nordeste 40 Nordeste 0 -- -- 34
2019-08-17 21:00:00 30.2 18 Nordeste 37 Este 0 -- -- 36
2019-08-17 20:00:00 32.1 18 Nordeste 36 Nordeste 0 -- -- 34
2019-08-17 19:00:00 30.7 16 Nordeste 41 Nordeste 0 -- -- 44
2019-08-17 18:00:00 32.2 13 Este 36 Este 0 -- -- 39
2019-08-17 17:00:00 30.4 14 Oeste 48 Noroeste 0 -- -- 48
2019-08-17 16:00:00 28.1 19 Noroeste 44 Norte 0 -- -- 58
2019-08-17 15:00:00 30.5 13 Noroeste 39 Nordeste 0 -- -- 51
2019-08-17 14:00:00 30.2 17 Este 45 Nordeste 0 -- -- 52
2019-08-17 13:00:00 30.5 15 Este 53 Este 0 -- -- 49
2019-08-17 12:00:00 29.1 25 Este 48 Este 0 -- -- 52
2019-08-17 11:00:00 27.7 21 Este 51 Este 0 -- -- 59
2019-08-17 10:00:00 25.8 20 Este 45 Sudeste 0 -- -- 65
2019-08-17 09:00:00 25.8 12 Oeste 28 Oeste 0 -- -- 61
2019-08-17 08:00:00 25.8 8 Oeste 23 Nordeste 0 -- -- 60
2019-08-17 07:00:00 25 7 Oeste 29 Noroeste 0 -- -- 63
2019-08-17 06:00:00 24.1 12 Noroeste 32 Norte 0 -- -- 69
2019-08-17 05:00:00 24.8 12 Norte 38 Noroeste 0 -- -- 65
2019-08-17 04:00:00 24 20 Norte 46 Noroeste 0 -- -- 71
2019-08-17 03:00:00 25.1 19 Norte 41 Norte 0 -- -- 64
2019-08-17 02:00:00 23.9 32 Norte 55 Norte 0 -- -- 72
2019-08-17 01:00:00 23.8 37 Norte 58 Norte 0 -- -- 73
2019-08-17 00:00:00 25.1 40 Norte 65 Norte 0 -- -- 67
2019-08-16 23:00:00 24.3 25 Nordeste 46 Nordeste 0 -- -- 73
2019-08-16 22:00:00 24.3 23 Nordeste 51 Nordeste 0 -- -- 73
2019-08-16 21:00:00 24.1 24 Nordeste 41 Nordeste 0 -- -- 75
2019-08-16 20:00:00 24.8 25 Nordeste 49 Nordeste 0 -- -- 73
2019-08-16 19:00:00 25.7 20 Nordeste 42 Nordeste 0 -- -- 69
2019-08-16 18:00:00 25.8 16 Nordeste 38 Nordeste 0 -- -- 70
2019-08-16 17:00:00 26.4 18 Norte 54 Norte 0 -- -- 69
2019-08-16 16:00:00 25.5 28 Norte 63 Norte 0 -- -- 72
2019-08-16 15:00:00 24.9 39 Norte 61 Norte 0 -- -- 75
2019-08-16 14:00:00 26.4 24 Norte 54 Norte 0 -- -- 67
2019-08-16 13:00:00 26.4 17 Nordeste 43 Nordeste 0 -- -- 64
2019-08-16 12:00:00 24.8 32 Norte 66 Norte 0 -- -- 71
2019-08-16 11:00:00 24.4 32 Norte 54 Norte 0 -- -- 73
2019-08-16 10:00:00 24.2 26 Nordeste 45 Nordeste 0 -- -- 72
2019-08-16 09:00:00 23 25 Nordeste 45 Nordeste 0 -- -- 76
2019-08-16 08:00:00 22.3 16 Nordeste 38 Nordeste 0 -- -- 78
2019-08-16 07:00:00 22.2 16 Norte 44 Norte 0 -- -- 79
2019-08-16 06:00:00 22.3 19 Norte 54 Nordeste 0 -- -- 79
2019-08-16 05:00:00 22.3 23 Norte 45 Norte 0 -- -- 78
2019-08-16 04:00:00 22.3 23 Nordeste 52 Nordeste 0 -- -- 78
2019-08-16 03:00:00 22.5 20 Nordeste 43 Nordeste 0 -- -- 78
2019-08-16 02:00:00 22.5 21 Norte 44 Norte 0 -- -- 78
2019-08-16 01:00:00 22.6 17 Nordeste 46 Nordeste 0 -- -- 77
2019-08-16 00:00:00 22.8 18 Nordeste 51 Nordeste 0 -- -- 76
2019-08-15 23:00:00 22.8 22 Norte 41 Norte 0 -- -- 76
2019-08-15 22:00:00 23.1 27 Norte 63 Norte 0 -- -- 77
2019-08-15 21:00:00 23.4 39 Norte 57 Norte 0 -- -- 75
2019-08-15 20:00:00 23.9 27 Norte 44 Norte 0 -- -- 70
2019-08-15 19:00:00 24.7 24 Nordeste 44 Norte 0 -- -- 66
2019-08-15 18:00:00 25.2 24 Nordeste 42 Nordeste 0 -- -- 65
2019-08-15 17:00:00 25.5 24 Norte 45 Norte 0 -- -- 65
2019-08-15 16:00:00 25.2 28 Norte 46 Norte 0 -- -- 65
2019-08-15 15:00:00 25.1 31 Norte 44 Norte 0 -- -- 65
2019-08-15 14:00:00 25.3 28 Norte 49 Norte 0 -- -- 65
2019-08-15 13:00:00 24.9 29 Norte 50 Norte 0 -- -- 65
2019-08-15 12:00:00 24.4 28 Norte 54 Norte 0 -- -- 67
2019-08-15 11:00:00 24.2 29 Norte 48 Noroeste 0 -- -- 68
2019-08-15 10:00:00 23.3 29 Norte 46 Nordeste 0 -- -- 69
2019-08-15 09:00:00 22.4 30 Norte 46 Nordeste 0 -- -- 72
2019-08-15 08:00:00 21.8 28 Norte 46 Nordeste 0 -- -- 74
2019-08-15 07:00:00 21.8 29 Norte 50 Nordeste 0 -- -- 74
2019-08-15 06:00:00 21.7 30 Norte 44 Nordeste 0 -- -- 72
2019-08-15 05:00:00 21.6 24 Nordeste 44 Norte 0 -- -- 72
2019-08-15 04:00:00 21.7 25 Norte 42 Norte 0 -- -- 73
2019-08-15 03:00:00 21.9 28 Norte 44 Norte 0 -- -- 72
2019-08-15 02:00:00 22 28 Norte 46 Norte 0 -- -- 72
2019-08-15 01:00:00 22 30 Norte 42 Norte 0 -- -- 73
2019-08-15 00:00:00 22.2 26 Norte 44 Nordeste 0 -- -- 72
2019-08-14 23:00:00 22.3 22 Norte 38 Norte 0 -- -- 71
2019-08-14 22:00:00 22.4 24 Norte 37 Norte 0 -- -- 73
2019-08-14 21:00:00 22.7 23 Norte 44 Nordeste 0 -- -- 72
2019-08-14 20:00:00 23.5 27 Norte 47 Nordeste 0 -- -- 69
2019-08-14 19:00:00 24.3 28 Norte 49 Norte 0 -- -- 64
2019-08-14 18:00:00 24.6 30 Norte 57 Norte 0 -- -- 67
2019-08-14 17:00:00 24.6 37 Norte 58 Norte 0 -- -- 65
2019-08-14 16:00:00 24.8 33 Norte 53 Norte 0 -- -- 64
2019-08-14 15:00:00 24.8 36 Norte 53 Norte 0 -- -- 64
2019-08-14 14:00:00 24.6 35 Norte 51 Nordeste 0 -- -- 64
2019-08-14 13:00:00 24.8 28 Norte 49 Norte 0 -- -- 61
2019-08-14 12:00:00 24 28 Norte 46 Norte 0 -- -- 65
2019-08-14 11:00:00 23.6 27 Nordeste 42 Norte 0 -- -- 62
2019-08-14 10:00:00 22.9 26 Nordeste 40 Norte 0 -- -- 66
2019-08-14 09:00:00 22.2 21 Nordeste 40 Nordeste 0 -- -- 69
2019-08-14 08:00:00 21.4 24 Norte 38 Norte 0 -- -- 72
2019-08-14 07:00:00 21.3 23 Norte 39 Nordeste 0 -- -- 71
2019-08-14 06:00:00 21.4 26 Norte 39 Norte 0 -- -- 69
2019-08-14 05:00:00 21.4 23 Norte 38 Nordeste 0 -- -- 71
2019-08-14 04:00:00 21.6 19 Norte 33 Nordeste 0 -- -- 70
2019-08-14 03:00:00 21.6 18 Nordeste 37 Nordeste 0 -- -- 70
2019-08-14 02:00:00 21.7 20 Nordeste 36 Nordeste 0 -- -- 70
2019-08-14 01:00:00 21.8 20 Nordeste 37 Nordeste 0 -- -- 70
2019-08-14 00:00:00 22.1 21 Nordeste 40 Nordeste 0 -- -- 68
2019-08-13 23:00:00 22.3 20 Nordeste 43 Nordeste -- -- -- 68
2019-08-13 22:00:00 22.4 16 Nordeste 38 Nordeste 0 -- -- 68
2019-08-13 21:00:00 22.5 20 Nordeste 42 Nordeste 0 -- -- 67
2019-08-13 20:00:00 23.1 23 Nordeste 45 Nordeste 0 -- -- 64
2019-08-13 19:00:00 23.9 27 Nordeste 46 Nordeste 0 -- -- 61
2019-08-13 18:00:00 23.8 30 Nordeste 49 Nordeste 0 -- -- 64
2019-08-13 17:00:00 24.5 25 Nordeste 47 Nordeste 0 -- -- 59
2019-08-13 16:00:00 24.6 31 Nordeste 50 Nordeste 0 -- -- 58
2019-08-13 15:00:00 24.8 28 Norte 57 Nordeste 0 -- -- 57
2019-08-13 14:00:00 24.9 28 Nordeste 50 Norte 0 -- -- 58
2019-08-13 13:00:00 24.6 31 Norte 49 Nordeste 0 -- -- 59
2019-08-13 12:00:00 24.1 31 Nordeste 49 Nordeste 0 -- -- 61
2019-08-13 11:00:00 24 29 Nordeste 50 Nordeste 0 -- -- 59
2019-08-13 10:00:00 23.3 27 Nordeste 42 Nordeste 0 -- -- 63
2019-08-13 09:00:00 22.5 21 Nordeste 41 Nordeste 0 -- -- 65
2019-08-13 08:00:00 21.7 21 Nordeste 38 Nordeste 0 -- -- 70
2019-08-13 07:00:00 21.6 19 Nordeste 36 Nordeste 0 -- -- 72
2019-08-13 06:00:00 21.7 21 Nordeste 37 Nordeste 0 -- -- 71
2019-08-13 05:00:00 21.8 19 Nordeste 35 Nordeste 0 -- -- 71
2019-08-13 04:00:00 21.8 19 Nordeste 38 Nordeste 0 -- -- 72
2019-08-13 03:00:00 21.9 18 Nordeste 33 Nordeste 0 -- -- 73
2019-08-13 02:00:00 22 18 Nordeste 42 Norte 0 -- -- 72
2019-08-13 01:00:00 22.1 24 Norte 40 Nordeste 0 -- -- 72
2019-08-13 00:00:00 22.3 22 Nordeste 37 Nordeste 0 -- -- 72
2019-08-12 23:00:00 22.4 20 Nordeste 39 Nordeste 0 -- -- 71
2019-08-12 22:00:00 22.5 21 Nordeste 39 Nordeste 0 -- -- 69
2019-08-12 21:00:00 22.7 23 Nordeste 43 Nordeste 0 -- -- 69
2019-08-12 20:00:00 23.7 21 Nordeste 45 Nordeste 0 -- -- 64
2019-08-12 19:00:00 24.1 25 Nordeste 42 Nordeste 0 -- -- 63
2019-08-12 18:00:00 24.7 28 Nordeste 44 Nordeste 0 -- -- 59
2019-08-12 17:00:00 24.9 27 Nordeste 44 Nordeste 0 -- -- 57
2019-08-12 16:00:00 25 27 Nordeste 45 Este 0 -- -- 58
2019-08-12 15:00:00 25.2 26 Nordeste 46 Norte 0 -- -- 57
2019-08-12 14:00:00 25.2 24 Nordeste 44 Nordeste 0 -- -- 60
2019-08-12 13:00:00 25 24 Nordeste 46 Nordeste 0 -- -- 60
2019-08-12 12:00:00 24.3 26 Nordeste 44 Nordeste 0 -- -- 61
2019-08-12 11:00:00 23.9 24 Nordeste 40 Nordeste 0 -- -- 65
2019-08-12 10:00:00 23.2 21 Nordeste 37 Nordeste 0 -- -- 70
2019-08-12 09:00:00 22.8 21 Nordeste 36 Norte 0 -- -- 72
2019-08-12 08:00:00 22.3 21 Nordeste 37 Nordeste 0 -- -- 74
2019-08-12 07:00:00 22.3 19 Nordeste 37 Nordeste 0 -- -- 72
2019-08-12 06:00:00 22.3 20 Nordeste 43 Nordeste 0 -- -- 74
2019-08-12 05:00:00 22.2 24 Nordeste 45 Norte 0 -- -- 72
2019-08-12 04:00:00 22.3 23 Nordeste 41 Nordeste 0 -- -- 71
2019-08-12 03:00:00 22.4 20 Nordeste 41 Nordeste 0 -- -- 69
2019-08-12 02:00:00 22.4 23 Nordeste 41 Nordeste 0 -- -- 68
2019-08-12 01:00:00 22.6 26 Nordeste 49 Nordeste 0 -- -- 65
2019-08-12 00:00:00 23 28 Nordeste 52 Norte 0 -- -- 61
2019-08-11 23:00:00 22.8 23 Nordeste 46 Nordeste 0 -- -- 69
2019-08-11 22:00:00 22.8 27 Nordeste 46 Nordeste 0 -- -- 71
2019-08-11 21:00:00 23.4 19 Nordeste 48 Nordeste 0 -- -- 68
2019-08-11 20:00:00 23.6 28 Nordeste 54 Nordeste 0 -- -- 65
2019-08-11 19:00:00 24.2 33 Nordeste 53 Nordeste 0 -- -- 65
2019-08-11 18:00:00 24.9 32 Nordeste 54 Este 0 -- -- 60
2019-08-11 17:00:00 25.3 31 Nordeste 53 Nordeste 0 -- -- 57
2019-08-11 16:00:00 24.7 29 Nordeste 47 Nordeste 0 -- -- 62
2019-08-11 15:00:00 24.9 28 Nordeste 49 Nordeste 0 -- -- 61
2019-08-11 14:00:00 24.6 31 Nordeste 50 Nordeste 0 -- -- 66
2019-08-11 13:00:00 25.4 25 Nordeste 53 Nordeste 0 -- -- 65
2019-08-11 12:00:00 25.9 26 Nordeste 53 Este 0 -- -- 61
2019-08-11 11:00:00 24.8 25 Nordeste 42 Este 0 -- -- 65
2019-08-11 10:00:00 24.6 25 Nordeste 42 Nordeste 0 -- -- 67
2019-08-11 09:00:00 24.3 24 Nordeste 48 Nordeste 0 -- -- 70
2019-08-11 08:00:00 23.8 21 Nordeste 42 Nordeste 0 -- -- 73
2019-08-11 07:00:00 23.5 24 Nordeste 45 Nordeste 0 -- -- 77
2019-08-11 06:00:00 23.7 22 Nordeste 46 Nordeste 0 -- -- 78
2019-08-11 05:00:00 24.1 25 Nordeste 49 Nordeste 0 -- -- 74
2019-08-11 04:00:00 23.9 28 Nordeste 52 Nordeste 0 -- -- 75
2019-08-11 03:00:00 23.6 25 Nordeste 50 Nordeste 0 -- -- 78
2019-08-11 02:00:00 23.8 24 Nordeste 46 Nordeste 0 -- -- 77
2019-08-11 01:00:00 23.5 28 Nordeste 42 Nordeste 0 -- -- 80
2019-08-11 00:00:00 24 24 Nordeste 45 Nordeste 0 -- -- 76
2019-08-10 23:00:00 24.3 23 Nordeste 45 Nordeste 0 -- -- 73
2019-08-10 22:00:00 24.2 29 Norte 45 Norte 0 -- -- 72
2019-08-10 21:00:00 24.2 26 Norte 48 Nordeste 0 -- -- 72
2019-08-10 20:00:00 25 31 Norte 48 Norte 0 -- -- 69
2019-08-10 19:00:00 25.9 34 Norte 55 Nordeste 0 -- -- 65
2019-08-10 18:00:00 26.9 28 Norte 49 Norte 0 -- -- 60
2019-08-10 17:00:00 27.1 27 Nordeste 54 Norte 0 -- -- 60
2019-08-10 16:00:00 27 36 Norte 55 Norte 0 -- -- 61
2019-08-10 15:00:00 27.3 31 Norte 53 Nordeste 0 -- -- 61
2019-08-10 14:00:00 27.1 30 Norte 55 Nordeste 0 -- -- 60
2019-08-10 13:00:00 27.2 32 Norte 63 Nordeste 0 -- -- 57
2019-08-10 12:00:00 27.6 32 Nordeste 50 Nordeste 0 -- -- 52
2019-08-10 11:00:00 27.7 31 Norte 50 Nordeste 0 -- -- 48
2019-08-10 10:00:00 27.6 28 Norte 47 Nordeste 0 -- -- 43
2019-08-10 09:00:00 27.2 29 Nordeste 62 Nordeste 0 -- -- 44
2019-08-10 08:00:00 24.4 28 Norte 49 Norte 0 -- -- 54
2019-08-10 07:00:00 24 25 Norte 38 Nordeste 0 -- -- 60
2019-08-10 06:00:00 24.4 23 Norte 39 Nordeste 0 -- -- 59
2019-08-10 05:00:00 24.8 20 Nordeste 38 Norte 0 -- -- 52
2019-08-10 04:00:00 25.3 22 Nordeste 41 Norte 0 -- -- 42
2019-08-10 03:00:00 24.9 26 Norte 45 Norte 0 -- -- 47
2019-08-10 02:00:00 24.4 23 Norte 36 Norte 0 -- -- 55
2019-08-10 01:00:00 24 21 Nordeste 35 Nordeste 0 -- -- 61
2019-08-10 00:00:00 24.7 7 Nordeste 28 Nordeste 0 -- -- 53
2019-08-09 23:00:00 23.8 5 Sur 21 Este 0 -- -- 65
2019-08-09 22:00:00 23.7 5 Norte 18 Nordeste 0 -- -- 68
2019-08-09 21:00:00 24.4 7 Nordeste 28 Norte 0 -- -- 63
2019-08-09 20:00:00 25.4 10 Nordeste 37 Norte 0 -- -- 60
2019-08-09 19:00:00 25.9 15 Nordeste 33 Nordeste 0 -- -- 63
2019-08-09 18:00:00 26.8 16 Nordeste 34 Nordeste 0 -- -- 61
2019-08-09 17:00:00 26.8 19 Nordeste 35 Nordeste 0 -- -- 60
2019-08-09 16:00:00 27 16 Nordeste 39 Norte 0 -- -- 61
2019-08-09 15:00:00 25.7 24 Norte 34 Norte 0 -- -- 66
2019-08-09 14:00:00 27 8 Sur 15 Sur 0 -- -- 62
2019-08-09 13:00:00 26.4 6 Sur 21 Sudoeste 0 -- -- 64
2019-08-09 12:00:00 25.3 11 Sudoeste 30 Sudeste 0 -- -- 63
2019-08-09 11:00:00 26.1 9 Sudoeste 22 Sudoeste 0 -- -- 60
2019-08-09 10:00:00 23.4 15 Sudoeste 23 Sur 0 -- -- 69
2019-08-09 09:00:00 24.4 8 Sudoeste 36 Sudeste 0 -- -- 59
2019-08-09 08:00:00 22 14 Sudeste 36 Este 0 -- -- 72
2019-08-09 07:00:00 21.9 18 Nordeste 39 Nordeste 0 -- -- 73
2019-08-09 06:00:00 22.3 15 Este 32 Nordeste 0 -- -- 69
2019-08-09 05:00:00 22.2 14 Este 33 Este 0 -- -- 71
2019-08-09 04:00:00 22.3 15 Este 29 Nordeste 0 -- -- 72
2019-08-09 03:00:00 22.5 12 Este 30 Este 0 -- -- 73
2019-08-09 02:00:00 22.6 14 Este 26 Este 0 -- -- 72
2019-08-09 01:00:00 22.7 11 Sudeste 28 Sudeste 0 -- -- 72
2019-08-09 00:00:00 23 10 Sudeste 26 Este 0 -- -- 73
2019-08-08 23:00:00 23.1 10 Este 26 Este 0 -- -- 73
2019-08-08 22:00:00 23.1 15 Nordeste 31 Este 0 -- -- 73
2019-08-08 21:00:00 23.6 15 Nordeste 27 Nordeste 0 -- -- 71
2019-08-08 20:00:00 24.7 13 Nordeste 28 Este 0 -- -- 67
2019-08-08 19:00:00 25.6 15 Norte 34 Norte 0 -- -- 66
2019-08-08 18:00:00 26.7 15 Norte 35 Norte 0 -- -- 61
2019-08-08 17:00:00 25.6 24 Norte 33 Norte 0 -- -- 66
2019-08-08 16:00:00 26.8 18 Norte 33 Norte 0 -- -- 60
2019-08-08 15:00:00 27.5 13 Nordeste 36 Norte 0 -- -- 58
2019-08-08 14:00:00 27.2 14 Norte 32 Norte 0 -- -- 58
2019-08-08 13:00:00 26.3 13 Nordeste 27 Norte 0 -- -- 63
2019-08-08 12:00:00 25 5 Sur 16 Sudeste 0 -- -- 67
2019-08-08 11:00:00 25.5 7 Este 24 Este 0 -- -- 63
2019-08-08 10:00:00 24.4 12 Nordeste 27 Este 0 -- -- 64
2019-08-08 09:00:00 23 11 Nordeste 26 Este 0 -- -- 68
2019-08-08 08:00:00 21.9 14 Este 35 Este 0 -- -- 72
2019-08-08 07:00:00 21.9 8 Este 25 Nordeste 0 -- -- 71
2019-08-08 06:00:00 21.9 10 Nordeste 28 Nordeste 0 -- -- 71
2019-08-08 05:00:00 22.1 13 Nordeste 32 Nordeste 0 -- -- 71
2019-08-08 04:00:00 21.9 17 Nordeste 31 Nordeste 0 -- -- 72
2019-08-08 03:00:00 22.2 12 Nordeste 30 Nordeste 0 -- -- 72
2019-08-08 02:00:00 22.4 10 Norte 27 Norte 0 -- -- 72
2019-08-08 01:00:00 22.6 16 Nordeste 43 Este 0 -- -- 71
2019-08-08 00:00:00 23 21 Este 45 Nordeste 0 -- -- 67
2019-08-07 23:00:00 22.9 22 Nordeste 44 Nordeste 0 -- -- 69
2019-08-07 22:00:00 23 21 Nordeste 42 Nordeste 0 -- -- 70
2019-08-07 21:00:00 23.1 21 Norte 41 Nordeste 0 -- -- 69
2019-08-07 20:00:00 24 24 Nordeste 45 Nordeste 0 -- -- 66
2019-08-07 19:00:00 25 23 Nordeste 46 Nordeste 0 -- -- 62
2019-08-07 18:00:00 25.4 25 Nordeste 47 Norte 0 -- -- 61
2019-08-07 17:00:00 25.7 30 Nordeste 45 Nordeste 0 -- -- 61
2019-08-07 16:00:00 26.5 20 Nordeste 40 Nordeste 0 -- -- 57
2019-08-07 15:00:00 26.3 23 Norte 49 Nordeste 0 -- -- 58
2019-08-07 14:00:00 25.8 22 Nordeste 41 Norte 0 -- -- 59
2019-08-07 13:00:00 25.3 26 Norte 42 Norte 0 -- -- 58
2019-08-07 12:00:00 24.7 27 Norte 46 Nordeste 0 -- -- 62
2019-08-07 11:00:00 24.3 24 Norte 37 Nordeste 0 -- -- 61
2019-08-07 10:00:00 23.6 17 Nordeste 33 Nordeste 0 -- -- 68
2019-08-07 09:00:00 23 15 Nordeste 34 Nordeste 0 -- -- 70
2019-08-07 08:00:00 22.5 13 Nordeste 26 Nordeste 0 -- -- 68
2019-08-07 07:00:00 22.2 15 Nordeste 27 Nordeste 0 -- -- 69
2019-08-07 06:00:00 22 15 Nordeste 32 Nordeste 0 -- -- 72
2019-08-07 05:00:00 22.1 17 Nordeste 33 Nordeste 0 -- -- 74
2019-08-07 04:00:00 22.2 17 Nordeste 32 Nordeste 0 -- -- 69
2019-08-07 03:00:00 22.3 16 Nordeste 30 Nordeste 0 -- -- 73
2019-08-07 02:00:00 22.3 16 Nordeste 36 Nordeste 0 -- -- 70
2019-08-07 01:00:00 22.3 19 Nordeste 36 Nordeste 0 -- -- 73
2019-08-07 00:00:00 22.6 23 Nordeste 37 Nordeste 0 -- -- 72
2019-08-06 23:00:00 22.8 17 Nordeste 45 Nordeste 0 -- -- 70
2019-08-06 22:00:00 23 19 Nordeste 40 Nordeste 0 -- -- 69
2019-08-06 21:00:00 23.2 20 Nordeste 37 Nordeste 0 -- -- 69
2019-08-06 20:00:00 24.1 22 Nordeste 45 Nordeste 0 -- -- 65
2019-08-06 19:00:00 24.4 25 Nordeste 40 Este 0 -- -- 62
2019-08-06 18:00:00 25.2 21 Nordeste 37 Este 0 -- -- 58
2019-08-06 17:00:00 25.6 15 Este 35 Nordeste 0 -- -- 57
2019-08-06 16:00:00 25.3 22 Norte 37 Norte 0 -- -- 62
2019-08-06 15:00:00 25.6 24 Norte 41 Nordeste 0 -- -- 61
2019-08-06 14:00:00 25.4 27 Norte 43 Nordeste 0 -- -- 62
2019-08-06 13:00:00 25.3 27 Norte 42 Nordeste 0 -- -- 59
2019-08-06 12:00:00 25.1 24 Nordeste 40 Nordeste 0 -- -- 58
2019-08-06 11:00:00 24.3 22 Nordeste 39 Nordeste 0 -- -- 62
2019-08-06 10:00:00 23.6 21 Nordeste 32 Nordeste 0 -- -- 67
2019-08-06 09:00:00 23 16 Este 37 Nordeste 0 -- -- 65
2019-08-06 08:00:00 22.8 14 Este 31 Nordeste 0 -- -- 65
2019-08-06 07:00:00 22.3 21 Nordeste 32 Nordeste 0 -- -- 72
2019-08-06 06:00:00 22.5 20 Nordeste 41 Nordeste 0 -- -- 70
2019-08-06 05:00:00 22.5 19 Nordeste 32 Nordeste 0 -- -- 71
2019-08-06 04:00:00 22.5 20 Nordeste 36 Nordeste 0 -- -- 74
2019-08-06 03:00:00 22.4 21 Nordeste 42 Nordeste 0 -- -- 77
2019-08-06 02:00:00 22.4 21 Nordeste 38 Nordeste 0 -- -- 75
2019-08-06 01:00:00 22.5 22 Nordeste 35 Nordeste 0 -- -- 73
2019-08-06 00:00:00 22.6 18 Nordeste 33 Nordeste 0 -- -- 73
2019-08-05 23:00:00 23.3 21 Nordeste 37 Nordeste 0 -- -- 68
2019-08-05 22:00:00 23.2 22 Nordeste 38 Nordeste 0 -- -- 68
2019-08-05 21:00:00 23.2 19 Nordeste 34 Nordeste 0 -- -- 72
2019-08-05 20:00:00 23.7 25 Nordeste 41 Nordeste 0 -- -- 69
2019-08-05 19:00:00 24 24 Nordeste 44 Nordeste 0 -- -- 68
2019-08-05 18:00:00 25.1 21 Nordeste 43 Norte 0 -- -- 64
2019-08-05 17:00:00 25 26 Norte 48 Norte 0 -- -- 65
2019-08-05 16:00:00 25.7 29 Nordeste 52 Nordeste 0 -- -- 60
2019-08-05 15:00:00 25.4 32 Norte 49 Norte 0 -- -- 58
2019-08-05 14:00:00 25.2 29 Nordeste 50 Nordeste 0 -- -- 57
2019-08-05 13:00:00 25.3 26 Nordeste 47 Nordeste 0 -- -- 57
2019-08-05 12:00:00 24.6 25 Nordeste 41 Nordeste -- -- -- 59
2019-08-05 11:00:00 24.3 24 Nordeste 40 Nordeste 0 -- -- 63
2019-08-05 10:00:00 23.2 20 Nordeste 36 Norte 0 -- -- 69
2019-08-05 09:00:00 22.8 17 Nordeste 36 Nordeste 0 -- -- 70
2019-08-05 08:00:00 22.4 19 Nordeste 32 Nordeste 0 -- -- 74
2019-08-05 07:00:00 22.7 15 Nordeste 34 Nordeste 0 -- -- 66
2019-08-05 06:00:00 22.7 14 Nordeste 30 Nordeste 0 -- -- 68
2019-08-05 05:00:00 22.5 17 Nordeste 35 Nordeste 0 -- -- 74
2019-08-05 04:00:00 22.6 21 Nordeste 37 Nordeste 0 -- -- 73
2019-08-05 03:00:00 23.1 15 Nordeste 31 Nordeste 0 -- -- 64
2019-08-05 02:00:00 23 21 Nordeste 43 Nordeste 0 -- -- 64
2019-08-05 01:00:00 23.2 21 Nordeste 38 Nordeste 0 -- -- 61
2019-08-05 00:00:00 22.7 17 Nordeste 35 Nordeste 0 -- -- 71
2019-08-04 23:00:00 23 18 Nordeste 35 Este 0 -- -- 70
2019-08-04 22:00:00 23.3 24 Nordeste 38 Nordeste 0 -- -- 65
2019-08-04 21:00:00 23.6 18 Nordeste 45 Este 0 -- -- 59
2019-08-04 20:00:00 24.2 21 Nordeste 41 Nordeste 0 -- -- 60
2019-08-04 19:00:00 25 19 Nordeste 42 Este 0 -- -- 59
2019-08-04 18:00:00 25.5 23 Nordeste 43 Nordeste 0 -- -- 54
2019-08-04 17:00:00 26.3 21 Nordeste 46 Este 0 -- -- 51
2019-08-04 16:00:00 25.8 26 Nordeste 46 Nordeste 0 -- -- 52
2019-08-04 15:00:00 25.8 20 Nordeste 41 Nordeste 0 -- -- 53
2019-08-04 14:00:00 25.9 18 Nordeste 45 Nordeste 0 -- -- 55
2019-08-04 13:00:00 25.5 20 Nordeste 40 Nordeste 0 -- -- 52
2019-08-04 12:00:00 24.7 18 Este 37 Nordeste 0 -- -- 54
2019-08-04 11:00:00 23.8 19 Nordeste 36 Este 0 -- -- 56
2019-08-04 10:00:00 22.8 16 Nordeste 30 Nordeste 0 -- -- 65
2019-08-04 09:00:00 22.2 18 Nordeste 30 Nordeste 0 -- -- 67
2019-08-04 08:00:00 21.9 14 Nordeste 28 Nordeste 0 -- -- 65
2019-08-04 07:00:00 21.4 18 Nordeste 31 Nordeste 0 -- -- 68
2019-08-04 06:00:00 21.8 16 Nordeste 27 Nordeste 0 -- -- 67
2019-08-04 05:00:00 21.7 18 Nordeste 30 Nordeste 0 -- -- 69
2019-08-04 04:00:00 21.7 17 Nordeste 30 Nordeste 0 -- -- 65
2019-08-04 03:00:00 21.7 21 Nordeste 39 Nordeste 0 -- -- 63
2019-08-04 02:00:00 21.8 21 Nordeste 36 Nordeste 0 -- -- 63
2019-08-04 01:00:00 22.1 17 Nordeste 37 Nordeste 0 -- -- 64
2019-08-04 00:00:00 22.2 17 Nordeste 33 Nordeste 0 -- -- 63
2019-08-03 23:00:00 22.1 19 Nordeste 34 Nordeste 0 -- -- 64
2019-08-03 22:00:00 22.3 18 Nordeste 37 Nordeste 0 -- -- 66
2019-08-03 21:00:00 22.4 22 Nordeste 38 Nordeste 0 -- -- 66
2019-08-03 20:00:00 23.6 18 Nordeste 40 Nordeste 0 -- -- 61
2019-08-03 19:00:00 24.1 21 Nordeste 41 Nordeste 0 -- -- 61
2019-08-03 18:00:00 24.5 19 Nordeste 40 Nordeste 0 -- -- 57
2019-08-03 17:00:00 24.6 16 Nordeste 45 Este 0 -- -- 56
2019-08-03 16:00:00 24.4 24 Nordeste 52 Este 0 -- -- 56
2019-08-03 15:00:00 24.4 21 Nordeste 44 Nordeste 0 -- -- 57
2019-08-03 14:00:00 24.4 20 Nordeste 38 Nordeste 0 -- -- 56
2019-08-03 13:00:00 24.1 19 Nordeste 49 Norte 0 -- -- 59
2019-08-03 12:00:00 22.9 22 Nordeste 34 Nordeste 0 -- -- 63
2019-08-03 11:00:00 23.2 20 Nordeste 38 Nordeste 0 -- -- 63
2019-08-03 10:00:00 22.8 17 Nordeste 34 Nordeste 0 -- -- 64
2019-08-03 09:00:00 21.8 18 Nordeste 34 Nordeste 0 -- -- 67
2019-08-03 08:00:00 -- 17 Nordeste 31 Nordeste 0 -- -- 67
2019-08-03 07:00:00 21.7 18 Nordeste 31 Nordeste 0 -- -- 65
2019-08-03 06:00:00 21.8 18 Nordeste 35 Nordeste 0 -- -- 67
2019-08-03 05:00:00 21.8 15 Nordeste 33 Nordeste 0 -- -- 65
2019-08-03 04:00:00 21.8 16 Nordeste 38 Nordeste 0 -- -- 66
2019-08-03 03:00:00 22 19 Nordeste 34 Nordeste 0 -- -- 69
2019-08-03 02:00:00 22 22 Nordeste 41 Nordeste 0 -- -- 67
2019-08-03 01:00:00 22.3 18 Nordeste 34 Norte 0 -- -- 66
2019-08-03 00:00:00 22.2 21 Nordeste 39 Nordeste 0 -- -- 67
2019-08-02 23:00:00 22.5 19 Nordeste 37 Nordeste 0 -- -- 66
2019-08-02 22:00:00 22.4 22 Nordeste 36 Nordeste 0 -- -- 66
2019-08-02 21:00:00 22.7 21 Nordeste 39 Nordeste 0 -- -- 68
2019-08-02 20:00:00 23.1 24 Nordeste 42 Nordeste 0 -- -- 64
2019-08-02 19:00:00 23.9 24 Nordeste 47 Nordeste 0 -- -- 61
2019-08-02 18:00:00 24.6 25 Nordeste 44 Nordeste 0 -- -- 57
2019-08-02 17:00:00 24.8 24 Norte 45 Norte 0 -- -- 58
2019-08-02 16:00:00 25.2 25 Nordeste 45 Norte 0 -- -- 56
2019-08-02 15:00:00 24.7 27 Norte 49 Nordeste 0 -- -- 56
2019-08-02 14:00:00 24.7 27 Nordeste 45 Nordeste 0 -- -- 55
2019-08-02 13:00:00 24.7 24 Nordeste 44 Nordeste 0 -- -- 57
2019-08-02 12:00:00 24 27 Nordeste 41 Este 0 -- -- 57
2019-08-02 11:00:00 23.1 24 Nordeste 35 Nordeste 0 -- -- 61
2019-08-02 10:00:00 22.8 18 Nordeste 31 Nordeste 0 -- -- 60
2019-08-02 09:00:00 22.1 16 Nordeste 31 Nordeste 0 -- -- 64
2019-08-02 08:00:00 21.9 20 Nordeste 31 Este 0 -- -- 65
2019-08-02 07:00:00 22 17 Nordeste 32 Nordeste 0 -- -- 63
2019-08-02 06:00:00 22.2 17 Nordeste 29 Este 0 -- -- 63
2019-08-02 05:00:00 22 16 Nordeste 30 Nordeste 0 -- -- 65
2019-08-02 04:00:00 21.8 16 Nordeste 33 Nordeste 0 -- -- 64
2019-08-02 03:00:00 21.9 19 Nordeste 37 Nordeste 0 -- -- 64
2019-08-02 02:00:00 21.9 23 Nordeste 37 Nordeste 0 -- -- 62
2019-08-02 01:00:00 22.1 19 Nordeste 37 Nordeste 0 -- -- 65
2019-08-02 00:00:00 22.5 16 Este 35 Nordeste 0 -- -- 62
2019-08-01 23:00:00 22.4 17 Nordeste 35 Nordeste 0 -- -- 62
2019-08-01 22:00:00 22.4 17 Nordeste 31 Norte 0 -- -- 62
2019-08-01 21:00:00 22.8 18 Nordeste 42 Nordeste 0 -- -- 63
2019-08-01 20:00:00 23.4 18 Este 42 Nordeste 0 -- -- 60
2019-08-01 19:00:00 24.3 19 Nordeste 36 Nordeste 0 -- -- 56
2019-08-01 18:00:00 24.8 20 Nordeste 40 Este 0 -- -- 53
2019-08-01 17:00:00 25.2 17 Nordeste 42 Norte 0 -- -- 52
2019-08-01 16:00:00 24.3 31 Norte 44 Norte 0 -- -- 54
2019-08-01 15:00:00 24.9 23 Norte 48 Norte 0 -- -- 53
2019-08-01 14:00:00 24.9 22 Nordeste 42 Nordeste 0 -- -- 52
2019-08-01 13:00:00 24.8 22 Nordeste 45 Nordeste 0 -- -- 57
2019-08-01 12:00:00 24.5 20 Nordeste 36 Norte 0 -- -- 55
2019-08-01 11:00:00 23 18 Nordeste 33 Nordeste 0 -- -- 61
2019-08-01 10:00:00 22.5 17 Nordeste 37 Nordeste 0 -- -- 64
2019-08-01 09:00:00 22.6 20 Nordeste 31 Nordeste 0 -- -- 59
2019-08-01 08:00:00 21.3 16 Nordeste 36 Nordeste 0 -- -- 64
2019-08-01 07:00:00 21.5 19 Nordeste 31 Nordeste 0 -- -- 64
2019-08-01 06:00:00 21.7 18 Nordeste 31 Nordeste 0 -- -- 64
2019-08-01 05:00:00 21.7 13 Nordeste 31 Nordeste 0 -- -- 61
2019-08-01 04:00:00 21.7 15 Nordeste 31 Nordeste 0 -- -- 61
2019-08-01 03:00:00 21.8 17 Nordeste 29 Este 0 -- -- 63
2019-08-01 02:00:00 21.7 18 Nordeste 38 Este 0 -- -- 61
2019-08-01 01:00:00 21.9 19 Nordeste 34 Nordeste 0 -- -- 60
2019-08-01 00:00:00 21.6 20 Nordeste 39 Nordeste 0 -- -- 66
2019-07-31 23:00:00 21.9 17 Nordeste 30 Este 0 -- -- 64
2019-07-31 22:00:00 21.9 17 Nordeste 30 Norte 0 -- -- 65
2019-07-31 21:00:00 22.4 16 Nordeste 32 Nordeste 0 -- -- 65
2019-07-31 20:00:00 22.6 17 Nordeste 34 Norte 0 -- -- 65
2019-07-31 19:00:00 23.5 22 Norte 37 Norte 0 -- -- 58
2019-07-31 18:00:00 24.3 18 Nordeste 36 Nordeste 0 -- -- 57
2019-07-31 17:00:00 24 19 Nordeste 39 Nordeste 0 -- -- 54
2019-07-31 16:00:00 24.1 23 Norte 41 Norte 0 -- -- 53
2019-07-31 15:00:00 23.6 21 Nordeste 36 Nordeste 0 -- -- 54
2019-07-31 14:00:00 23.4 24 Norte 39 Norte 0 -- -- 60
2019-07-31 13:00:00 22.8 27 Norte 39 Norte 0 -- -- 60
2019-07-31 12:00:00 23 19 Nordeste 34 Norte 0 -- -- 59
2019-07-31 11:00:00 23.4 18 Nordeste 31 Nordeste 0 -- -- 52
2019-07-31 10:00:00 22.3 16 Nordeste 32 Nordeste 0 -- -- 56
2019-07-31 09:00:00 21.7 16 Nordeste 33 Norte 0 -- -- 64
2019-07-31 08:00:00 21.5 15 Nordeste 34 Este 0 -- -- 62
2019-07-31 07:00:00 21.3 15 Nordeste 29 Norte 0 -- -- 63
2019-07-31 06:00:00 21.3 14 Nordeste 32 Nordeste 0 -- -- 61
2019-07-31 05:00:00 21.4 19 Nordeste 35 Este 0 -- -- 64
2019-07-31 04:00:00 21.4 19 Nordeste 32 Nordeste 0 -- -- 64
2019-07-31 03:00:00 21.4 17 Nordeste 35 Nordeste 0 -- -- 65
2019-07-31 02:00:00 21.5 18 Nordeste 32 Nordeste 0 -- -- 69
2019-07-31 01:00:00 21.4 16 Nordeste 33 Nordeste 0 -- -- 67
2019-07-31 00:00:00 21.5 19 Nordeste 36 Este 0 -- -- 68
2019-07-30 23:00:00 21.8 20 Nordeste 39 Nordeste 0 -- -- 69
2019-07-30 22:00:00 21.7 23 Nordeste 37 Norte 0 -- -- 68
2019-07-30 21:00:00 22.2 20 Nordeste 35 Nordeste 0 -- -- 70
2019-07-30 20:00:00 22.9 19 Nordeste 36 Nordeste 0 -- -- 62
2019-07-30 19:00:00 22.7 21 Nordeste 36 Nordeste 0 -- -- 66
2019-07-30 18:00:00 23.3 18 Nordeste 40 Norte 0 -- -- 63
2019-07-30 17:00:00 24 24 Norte 38 Nordeste 0 -- -- 63
2019-07-30 16:00:00 23.3 18 Nordeste 41 Norte 0 -- -- 64
2019-07-30 15:00:00 23.5 19 Nordeste 45 Nordeste 0 -- -- 65
2019-07-30 14:00:00 22.9 17 Nordeste 33 Norte 0 -- -- 67
2019-07-30 13:00:00 22.5 13 Nordeste 37 Nordeste 0 -- -- 69
2019-07-30 12:00:00 22.1 16 Nordeste 38 Nordeste 0.2 -- -- 72
2019-07-30 11:00:00 22.1 15 Nordeste 36 Nordeste 0 -- -- 74
2019-07-30 10:00:00 20.3 22 Nordeste 35 Norte 1 -- -- 85
2019-07-30 09:00:00 21.7 15 Nordeste 34 Nordeste 0 -- -- 76
2019-07-30 08:00:00 21.8 21 Nordeste 35 Nordeste 0 -- -- 75
2019-07-30 07:00:00 20.9 26 Nordeste 40 Nordeste 0 -- -- 80
2019-07-30 06:00:00 22.3 23 Nordeste 35 Nordeste 0 -- -- 75
2019-07-30 05:00:00 22.7 18 Este 36 Nordeste 0 -- -- 72
2019-07-30 04:00:00 22.8 19 Nordeste 35 Nordeste 0 -- -- 72
2019-07-30 03:00:00 22.9 18 Nordeste 33 Nordeste 0 -- -- 70
2019-07-30 02:00:00 22.7 16 Nordeste 39 Este 0 -- -- 73
2019-07-30 01:00:00 22.7 20 Nordeste 37 Nordeste 0 -- -- 73
2019-07-30 00:00:00 22.7 19 Nordeste 35 Nordeste 0 -- -- 74
2019-07-29 23:00:00 23.1 22 Nordeste 39 Nordeste 0 -- -- 70
2019-07-29 22:00:00 23.4 19 Nordeste 33 Nordeste 0 -- -- 64
2019-07-29 21:00:00 23.2 18 Nordeste 37 Nordeste 0 -- -- 66
2019-07-29 20:00:00 23.7 21 Nordeste 40 Nordeste 0 -- -- 63
2019-07-29 19:00:00 23.7 21 Nordeste 43 Este 0 -- -- 64
2019-07-29 18:00:00 24.2 24 Nordeste 40 Nordeste 0 -- -- 60
2019-07-29 17:00:00 24.5 22 Nordeste 45 Este 0 -- -- 62
2019-07-29 16:00:00 24.3 23 Nordeste 41 Nordeste 0 -- -- 60
2019-07-29 15:00:00 24.9 21 Nordeste 42 Este 0 -- -- 58
2019-07-29 14:00:00 24.7 22 Nordeste 42 Nordeste 0 -- -- 54
2019-07-29 13:00:00 24.2 23 Nordeste 41 Este 0 -- -- 59
2019-07-29 12:00:00 23.7 23 Nordeste 38 Nordeste 0 -- -- 58
2019-07-29 11:00:00 23.2 24 Nordeste 40 Nordeste 0 -- -- 61
2019-07-29 10:00:00 22.8 22 Nordeste 41 Nordeste 0 -- -- 62
2019-07-29 09:00:00 22.5 22 Nordeste 32 Nordeste 0 -- -- 63
2019-07-29 08:00:00 22.2 19 Nordeste 31 Nordeste 0 -- -- 64
2019-07-29 07:00:00 22.1 13 Nordeste 32 Nordeste 0 -- -- 63
2019-07-29 06:00:00 22.1 16 Nordeste 32 Nordeste 0 -- -- 64
2019-07-29 05:00:00 22.1 19 Nordeste 34 Nordeste 0 -- -- 65
2019-07-29 04:00:00 22.3 17 Nordeste 32 Nordeste 0 -- -- 64
2019-07-29 03:00:00 22.2 17 Nordeste 31 Nordeste 0 -- -- 65
2019-07-29 02:00:00 22.5 18 Nordeste 34 Nordeste 0 -- -- 66
2019-07-29 01:00:00 22.6 17 Nordeste 32 Nordeste 0 -- -- 65
2019-07-29 00:00:00 22.6 20 Nordeste 34 Este 0 -- -- 65
2019-07-28 23:00:00 22.4 17 Nordeste 41 Nordeste 0 -- -- 66
2019-07-28 22:00:00 22.9 19 Nordeste 41 Nordeste 0 -- -- 66
2019-07-28 21:00:00 22.9 21 Nordeste 52 Nordeste 0 -- -- 69
2019-07-28 20:00:00 23.6 26 Nordeste 39 Nordeste 0 -- -- 65
2019-07-28 19:00:00 23.9 18 Este 46 Este 0 -- -- 64
2019-07-28 18:00:00 24.2 22 Nordeste 42 Nordeste 0 -- -- 64
2019-07-28 17:00:00 25.1 25 Nordeste 42 Nordeste 0 -- -- 61
2019-07-28 16:00:00 24.7 23 Nordeste 40 Nordeste 0 -- -- 66
2019-07-28 15:00:00 24.8 23 Nordeste 39 Nordeste 0 -- -- 68
2019-07-28 14:00:00 24.7 24 Nordeste 41 Nordeste 0 -- -- 69
2019-07-28 13:00:00 25.1 20 Nordeste 39 Nordeste 0 -- -- 68
2019-07-28 12:00:00 24.7 24 Nordeste 42 Este 0 -- -- 69
2019-07-28 11:00:00 23.2 24 Nordeste 39 Nordeste 0 -- -- 74
2019-07-28 10:00:00 22.2 19 Nordeste 33 Nordeste 0 -- -- 83
2019-07-28 09:00:00 21.8 20 Nordeste 37 Nordeste 0 -- -- 79
2019-07-28 08:00:00 22.3 18 Nordeste 37 Nordeste 0 -- -- 73
2019-07-28 07:00:00 22.1 24 Nordeste 36 Nordeste 0 -- -- 72
2019-07-28 06:00:00 21.7 21 Nordeste 37 Nordeste 0 -- -- 77
2019-07-28 05:00:00 22 20 Nordeste 39 Nordeste 0 -- -- 74
2019-07-28 04:00:00 22.6 19 Nordeste 41 Nordeste 0 -- -- 69
2019-07-28 03:00:00 22.2 24 Nordeste 44 Nordeste 0 -- -- 72
2019-07-28 02:00:00 22.5 21 Este 44 Este 0 -- -- 71
2019-07-28 01:00:00 22.1 24 Nordeste 39 Nordeste 0 -- -- 68
2019-07-28 00:00:00 21.8 23 Nordeste 41 Nordeste 0 -- -- 68
2019-07-27 23:00:00 22 26 Nordeste 46 Nordeste 0 -- -- 67
2019-07-27 22:00:00 22.2 22 Nordeste 44 Nordeste 0 -- -- 71
2019-07-26 11:00:00 23.4 39 Norte 68 Nordeste 0 -- -- 71
2019-07-26 10:00:00 23.1 35 Norte 63 Norte 0 -- -- 73
2019-07-26 09:00:00 22.7 28 Norte 59 Norte 0 -- -- 72
2019-07-26 08:00:00 23.3 21 Norte 55 Nordeste 0 -- -- 67
2019-07-26 07:00:00 22.5 30 Norte 58 Nordeste 0 -- -- 71
2019-07-26 06:00:00 24.4 22 Nordeste 60 Nordeste 0 -- -- 60
2019-07-26 05:00:00 22.7 30 Nordeste 49 Nordeste 0 -- -- 70
2019-07-26 04:00:00 22.7 33 Nordeste 53 Nordeste 0 -- -- 70
2019-07-26 03:00:00 23.9 28 Norte 51 Norte 0 -- -- 64
2019-07-26 02:00:00 24.1 27 Nordeste 50 Nordeste 0 -- -- 62
2019-07-26 01:00:00 25.2 28 Nordeste 56 Nordeste 0 -- -- 58
2019-07-26 00:00:00 22.6 26 Norte 49 Norte 0 -- -- 76
2019-07-25 23:00:00 23 25 Nordeste 49 Nordeste 0 -- -- 73
2019-07-25 22:00:00 23.1 25 Nordeste 47 Nordeste 0 -- -- 71
2019-07-25 21:00:00 23.2 27 Norte 43 Norte 0 -- -- 66
2019-07-25 20:00:00 24.7 30 Norte 48 Norte 0 -- -- 54
2019-07-25 19:00:00 24.9 35 Norte 47 Norte 0 -- -- 58
2019-07-25 18:00:00 25.6 29 Norte 44 Nordeste 0 -- -- 58
2019-07-25 17:00:00 27.1 26 Norte 51 Nordeste 0 -- -- 48
2019-07-25 16:00:00 26.7 26 Norte 53 Norte 0 -- -- 51
2019-07-25 15:00:00 26.5 34 Norte 52 Nordeste 0 -- -- 48
2019-07-25 14:00:00 28 34 Nordeste 55 Nordeste 0 -- -- 34
2019-07-25 13:00:00 27 31 Norte 53 Norte 0 -- -- 40
2019-07-25 12:00:00 26.4 28 Norte 49 Nordeste 0 -- -- 45
2019-07-25 11:00:00 26.5 28 Nordeste 51 Nordeste 0 -- -- 37
2019-07-25 10:00:00 22.8 42 Norte 52 Norte 0 -- -- 69
2019-07-25 09:00:00 23.4 24 Norte 40 Norte 0 -- -- 59
2019-07-25 08:00:00 23 23 Norte 44 Norte 0 -- -- 52
2019-07-25 07:00:00 22.2 29 Norte 45 Norte 0 -- -- 62
2019-07-25 06:00:00 23.2 26 Norte 42 Norte 0 -- -- 53
2019-07-25 05:00:00 22.8 26 Norte 46 Norte 0 -- -- 56
2019-07-25 04:00:00 22.2 27 Norte 42 Norte 0 -- -- 64
2019-07-25 03:00:00 23.5 26 Norte 44 Norte 0 -- -- 51
2019-07-25 02:00:00 24.2 24 Norte 41 Norte 0 -- -- 46
2019-07-25 01:00:00 24.1 24 Norte 41 Norte 0 -- -- 49
2019-07-25 00:00:00 24.4 22 Nordeste 41 Nordeste 0 -- -- 45
2019-07-24 23:00:00 23 18 Norte 46 Norte 0 -- -- 61
2019-07-24 22:00:00 22.5 28 Norte 53 Nordeste 0 -- -- 69
2019-07-24 21:00:00 22.7 24 Norte 45 Nordeste 0 -- -- 68
2019-07-24 20:00:00 23.1 30 Norte 45 Nordeste 0 -- -- 67
2019-07-24 19:00:00 23.9 29 Norte 49 Norte 0 -- -- 65
2019-07-24 18:00:00 24.3 28 Norte 50 Norte 0 -- -- 65
2019-07-24 17:00:00 23.8 36 Norte 58 Norte 0 -- -- 66
2019-07-24 16:00:00 24.1 39 Norte 54 Norte 0 -- -- 64
2019-07-24 15:00:00 24.6 31 Norte 53 Norte 0 -- -- 62
2019-07-24 14:00:00 23.9 37 Norte 54 Norte 0 -- -- 65
2019-07-24 13:00:00 23.8 37 Norte 55 Norte 0 -- -- 63
2019-07-24 12:00:00 23.8 32 Norte 53 Nordeste 0 -- -- 62
2019-07-24 11:00:00 23.3 28 Nordeste 53 Nordeste 0 -- -- 66
2019-07-24 10:00:00 22.4 31 Nordeste 52 Norte 0 -- -- 68
2019-07-24 09:00:00 21.7 30 Norte 49 Nordeste 0 -- -- 70
2019-07-24 08:00:00 21.2 29 Nordeste 49 Nordeste 0 -- -- 72
2019-07-24 07:00:00 21 28 Norte 47 Nordeste 0 -- -- 73
2019-07-24 06:00:00 21 30 Nordeste 50 Nordeste 0 -- -- 72
2019-07-24 05:00:00 21.1 28 Nordeste 45 Nordeste 0 -- -- 72
2019-07-24 04:00:00 21.2 28 Nordeste 48 Norte 0 -- -- 72
2019-07-24 03:00:00 21.3 28 Nordeste 44 Norte 0 -- -- 70
2019-07-24 02:00:00 21.5 24 Nordeste 39 Nordeste 0 -- -- 69
2019-07-24 01:00:00 21.7 23 Nordeste 40 Nordeste 0 -- -- 67
2019-07-24 00:00:00 21.8 21 Nordeste 40 Nordeste 0 -- -- 68
2019-07-23 23:00:00 21.8 21 Nordeste 39 Nordeste 0 -- -- 68
2019-07-23 22:00:00 21.9 24 Nordeste 37 Nordeste 0 -- -- 68
2019-07-23 21:00:00 22.1 23 Nordeste 39 Nordeste 0 -- -- 68
2019-07-23 20:00:00 22.5 21 Nordeste 39 Nordeste 0 -- -- 64
2019-07-23 19:00:00 23.3 22 Nordeste 45 Nordeste 0 -- -- 63
2019-07-23 18:00:00 23.6 29 Nordeste 50 Norte 0 -- -- 61
2019-07-23 17:00:00 24.1 27 Nordeste 47 Nordeste 0 -- -- 59
2019-07-23 16:00:00 23.6 28 Norte 51 Norte 0 -- -- 61
2019-07-23 15:00:00 24 29 Norte 59 Norte 0 -- -- 59
2019-07-23 14:00:00 24 29 Nordeste 54 Norte 0 -- -- 60
2019-07-23 13:00:00 23.7 30 Norte 54 Norte 0 -- -- 59
2019-07-23 12:00:00 22.9 28 Nordeste 50 Nordeste 0 -- -- 64
2019-07-23 11:00:00 22.9 28 Nordeste 49 Nordeste 0 -- -- 63
2019-07-23 10:00:00 22 30 Nordeste 48 Nordeste 0 -- -- 66
2019-07-23 09:00:00 21.3 21 Nordeste 40 Nordeste 0 -- -- 69
2019-07-23 08:00:00 21.1 21 Nordeste 45 Nordeste 0 -- -- 69
2019-07-23 07:00:00 21.1 23 Nordeste 34 Nordeste 0 -- -- 69
2019-07-23 06:00:00 21.1 19 Nordeste 35 Nordeste 0 -- -- 70
2019-07-23 05:00:00 21.3 24 Nordeste 40 Nordeste 0 -- -- 67
2019-07-23 04:00:00 21.4 21 Nordeste 36 Este 0 -- -- 68
2019-07-23 03:00:00 21.6 20 Nordeste 36 Nordeste 0 -- -- 68
2019-07-23 02:00:00 21.5 19 Nordeste 37 Este 0 -- -- 68
2019-07-23 01:00:00 21.7 18 Nordeste 35 Nordeste 0 -- -- 67
2019-07-23 00:00:00 21.8 19 Nordeste 36 Este 0 -- -- 68
2019-07-22 23:00:00 21.7 23 Nordeste 36 Nordeste 0 -- -- 69
2019-07-22 22:00:00 21.6 19 Nordeste 36 Nordeste 0 -- -- 69
2019-07-22 21:00:00 21.8 21 Nordeste 43 Nordeste 0 -- -- 69
2019-07-22 20:00:00 22.6 25 Nordeste 48 Este 0 -- -- 66
2019-07-22 19:00:00 23.4 27 Nordeste 52 Norte 0 -- -- 64
2019-07-22 18:00:00 23.7 29 Norte 53 Norte 0 -- -- 64
2019-07-22 17:00:00 24.1 27 Norte 54 Nordeste 0 -- -- 61
2019-07-22 16:00:00 24 28 Norte 48 Nordeste 0 -- -- 64
2019-07-22 15:00:00 24.4 27 Norte 48 Norte 0 -- -- 62
2019-07-22 14:00:00 24.2 29 Nordeste 51 Norte 0 -- -- 61
2019-07-22 13:00:00 23.6 28 Nordeste 46 Nordeste 0 -- -- 65
2019-07-22 12:00:00 23.6 23 Nordeste 45 Nordeste 0 -- -- 63
2019-07-22 11:00:00 23.1 27 Nordeste 45 Nordeste 0 -- -- 64
2019-07-22 10:00:00 22.3 26 Nordeste 45 Este 0 -- -- 67
2019-07-22 09:00:00 21.6 22 Nordeste 39 Nordeste 0 -- -- 68
2019-07-22 08:00:00 21.4 22 Nordeste 37 Nordeste 0 -- -- 70
2019-07-22 07:00:00 21.3 21 Nordeste 43 Nordeste 0 -- -- 70
2019-07-22 06:00:00 21.4 21 Nordeste 38 Nordeste 0 -- -- 68
2019-07-22 05:00:00 21.5 22 Nordeste 44 Nordeste 0 -- -- 69
2019-07-22 04:00:00 21.4 25 Nordeste 45 Nordeste 0 -- -- 72
2019-07-22 03:00:00 21.5 20 Nordeste 36 Nordeste 0 -- -- 69
2019-07-22 02:00:00 21.7 19 Nordeste 40 Nordeste 0 -- -- 70
2019-07-22 01:00:00 21.9 23 Nordeste 41 Nordeste 0 -- -- 71
2019-07-22 00:00:00 21.9 26 Nordeste 48 Norte 0 -- -- 70
2019-07-21 23:00:00 22.2 28 Nordeste 46 Nordeste 0 -- -- 68
2019-07-21 22:00:00 22.1 26 Nordeste 48 Norte 0 -- -- 68
2019-07-21 21:00:00 22.1 29 Nordeste 52 Nordeste 0 -- -- 68
2019-07-21 20:00:00 23.2 28 Nordeste 46 Nordeste 0 -- -- 66
2019-07-21 19:00:00 23.7 28 Nordeste 49 Norte 0 -- -- 64
2019-07-21 18:00:00 24.3 26 Nordeste 50 Nordeste 0 -- -- 64
2019-07-21 17:00:00 24.5 31 Norte 53 Norte 0 -- -- 61
2019-07-21 16:00:00 24.4 34 Norte 51 Norte 0 -- -- 64
2019-07-21 15:00:00 25 29 Nordeste 53 Nordeste 0 -- -- 58
2019-07-21 14:00:00 24.7 27 Norte 53 Norte 0 -- -- 60
2019-07-21 13:00:00 24 32 Norte 55 Norte 0 -- -- 62
2019-07-21 12:00:00 24.2 26 Norte 47 Norte 0 -- -- 61
2019-07-21 11:00:00 23.7 24 Norte 50 Norte 0 -- -- 65
2019-07-21 10:00:00 22.9 24 Norte 42 Nordeste 0 -- -- 66
2019-07-21 09:00:00 22.3 22 Nordeste 43 Nordeste 0 -- -- 69
2019-07-21 08:00:00 21.6 25 Nordeste 51 Nordeste 0 -- -- 70
2019-07-21 07:00:00 21.5 24 Norte 46 Nordeste 0 -- -- 72
2019-07-21 06:00:00 21.5 19 Norte 42 Nordeste 0 -- -- 73
2019-07-21 05:00:00 21.6 19 Nordeste 42 Nordeste 0 -- -- 73
2019-07-21 04:00:00 21.6 24 Nordeste 50 Nordeste 0 -- -- 73
2019-07-21 03:00:00 22.3 22 Nordeste 52 Este 0 -- -- 70
2019-07-21 02:00:00 22.3 22 Nordeste 50 Nordeste 0 -- -- 68
2019-07-21 01:00:00 22.1 26 Nordeste 44 Norte 0 -- -- 71
2019-07-21 00:00:00 22.2 24 Nordeste 44 Nordeste 0 -- -- 69